sensor_id;sensor_type;location;lat;lon;timestamp;temperature;humidity
79030;DHT22;68511;51.146;7.012;2023-06-19T00:00:30;19.10;57.40
79030;DHT22;68511;51.146;7.012;2023-06-19T00:01:31;19.10;57.40
79030;DHT22;68511;51.146;7.012;2023-06-19T00:02:31;19.10;57.40
79030;DHT22;68511;51.146;7.012;2023-06-19T00:03:32;19.10;57.40
79030;DHT22;68511;51.146;7.012;2023-06-19T00:04:32;19.10;57.40
79030;DHT22;68511;51.146;7.012;2023-06-19T00:05:33;19.10;57.40
79030;DHT22;68511;51.146;7.012;2023-06-19T00:06:33;19.10;57.40
79030;DHT22;68511;51.146;7.012;2023-06-19T00:07:34;19.10;57.50
79030;DHT22;68511;51.146;7.012;2023-06-19T00:08:35;19.10;57.40
79030;DHT22;68511;51.146;7.012;2023-06-19T00:09:36;19.10;57.50
79030;DHT22;68511;51.146;7.012;2023-06-19T00:10:37;19.10;57.40
79030;DHT22;68511;51.146;7.012;2023-06-19T00:11:37;19.10;57.40
79030;DHT22;68511;51.146;7.012;2023-06-19T00:12:38;19.10;57.40
79030;DHT22;68511;51.146;7.012;2023-06-19T00:13:38;19.10;57.40
79030;DHT22;68511;51.146;7.012;2023-06-19T00:14:39;19.10;57.40
79030;DHT22;68511;51.146;7.012;2023-06-19T00:15:42;19.10;57.40
79030;DHT22;68511;51.146;7.012;2023-06-19T00:16:43;19.10;57.40
79030;DHT22;68511;51.146;7.012;2023-06-19T00:17:45;19.10;57.40
79030;DHT22;68511;51.146;7.012;2023-06-19T00:18:46;19.10;57.40
79030;DHT22;68511;51.146;7.012;2023-06-19T00:19:49;19.10;57.40
79030;DHT22;68511;51.146;7.012;2023-06-19T00:20:51;19.10;57.30
79030;DHT22;68511;51.146;7.012;2023-06-19T00:21:53;19.10;57.40
79030;DHT22;68511;51.146;7.012;2023-06-19T00:22:57;19.10;57.40
79030;DHT22;68511;51.146;7.012;2023-06-19T00:23:58;19.10;57.40
79030;DHT22;68511;51.146;7.012;2023-06-19T00:24:58;19.10;57.40
79030;DHT22;68511;51.146;7.012;2023-06-19T00:25:58;19.10;57.40
79030;DHT22;68511;51.146;7.012;2023-06-19T00:27:02;19.10;57.50
79030;DHT22;68511;51.146;7.012;2023-06-19T00:28:03;19.10;57.40
79030;DHT22;68511;51.146;7.012;2023-06-19T00:29:03;19.10;57.40
79030;DHT22;68511;51.146;7.012;2023-06-19T00:30:05;19.10;57.70
79030;DHT22;68511;51.146;7.012;2023-06-19T00:31:05;19.10;57.40
79030;DHT22;68511;51.146;7.012;2023-06-19T00:32:07;19.10;57.40
79030;DHT22;68511;51.146;7.012;2023-06-19T00:33:07;19.10;57.40
79030;DHT22;68511;51.146;7.012;2023-06-19T00:34:08;19.10;57.40
79030;DHT22;68511;51.146;7.012;2023-06-19T00:35:09;19.10;57.40
79030;DHT22;68511;51.146;7.012;2023-06-19T00:36:12;19.10;57.40
79030;DHT22;68511;51.146;7.012;2023-06-19T00:37:13;19.10;57.40
79030;DHT22;68511;51.146;7.012;2023-06-19T00:38:13;19.10;57.40
79030;DHT22;68511;51.146;7.012;2023-06-19T00:39:14;19.10;57.40
79030;DHT22;68511;51.146;7.012;2023-06-19T00:40:28;19.10;57.40
79030;DHT22;68511;51.146;7.012;2023-06-19T00:41:29;19.10;57.40
79030;DHT22;68511;51.146;7.012;2023-06-19T00:42:33;19.10;57.40
79030;DHT22;68511;51.146;7.012;2023-06-19T00:43:34;19.10;57.40
79030;DHT22;68511;51.146;7.012;2023-06-19T00:44:34;19.10;57.50
79030;DHT22;68511;51.146;7.012;2023-06-19T00:45:35;19.10;57.40
79030;DHT22;68511;51.146;7.012;2023-06-19T00:46:36;19.10;57.40
79030;DHT22;68511;51.146;7.012;2023-06-19T00:47:38;19.10;57.50
79030;DHT22;68511;51.146;7.012;2023-06-19T00:48:38;19.10;57.50
79030;DHT22;68511;51.146;7.012;2023-06-19T00:49:39;19.10;57.50
79030;DHT22;68511;51.146;7.012;2023-06-19T00:50:40;19.10;57.40
79030;DHT22;68511;51.146;7.012;2023-06-19T00:51:40;19.10;57.40
79030;DHT22;68511;51.146;7.012;2023-06-19T00:52:40;19.10;57.40
79030;DHT22;68511;51.146;7.012;2023-06-19T00:53:41;19.10;57.40
79030;DHT22;68511;51.146;7.012;2023-06-19T00:54:41;19.10;57.40
79030;DHT22;68511;51.146;7.012;2023-06-19T00:55:42;19.10;57.40
79030;DHT22;68511;51.146;7.012;2023-06-19T00:56:44;19.10;57.40
79030;DHT22;68511;51.146;7.012;2023-06-19T00:57:45;19.10;57.40
79030;DHT22;68511;51.146;7.012;2023-06-19T00:58:45;19.10;57.40
79030;DHT22;68511;51.146;7.012;2023-06-19T00:59:46;19.10;57.40
79030;DHT22;68511;51.146;7.012;2023-06-19T01:00:49;19.10;57.40
79030;DHT22;68511;51.146;7.012;2023-06-19T01:01:50;19.10;57.40
79030;DHT22;68511;51.146;7.012;2023-06-19T01:02:50;19.10;57.40
79030;DHT22;68511;51.146;7.012;2023-06-19T01:03:51;19.10;57.40
79030;DHT22;68511;51.146;7.012;2023-06-19T01:04:51;19.10;57.40
79030;DHT22;68511;51.146;7.012;2023-06-19T01:05:52;19.10;57.50
79030;DHT22;68511;51.146;7.012;2023-06-19T01:06:57;19.10;57.40
79030;DHT22;68511;51.146;7.012;2023-06-19T01:08:12;19.10;57.40
79030;DHT22;68511;51.146;7.012;2023-06-19T01:09:15;19.10;57.40
79030;DHT22;68511;51.146;7.012;2023-06-19T01:10:18;19.10;57.40
79030;DHT22;68511;51.146;7.012;2023-06-19T01:11:21;19.10;57.40
79030;DHT22;68511;51.146;7.012;2023-06-19T01:12:36;19.10;57.40
79030;DHT22;68511;51.146;7.012;2023-06-19T01:13:57;19.10;57.40
79030;DHT22;68511;51.146;7.012;2023-06-19T01:15:03;19.10;57.40
79030;DHT22;68511;51.146;7.012;2023-06-19T01:16:06;19.10;57.40
79030;DHT22;68511;51.146;7.012;2023-06-19T01:17:07;19.10;57.60
79030;DHT22;68511;51.146;7.012;2023-06-19T01:18:08;19.10;57.40
79030;DHT22;68511;51.146;7.012;2023-06-19T01:19:11;19.10;57.50
79030;DHT22;68511;51.146;7.012;2023-06-19T01:20:15;19.10;57.50
79030;DHT22;68511;51.146;7.012;2023-06-19T01:21:17;19.10;57.40
79030;DHT22;68511;51.146;7.012;2023-06-19T01:22:24;19.10;57.50
79030;DHT22;68511;51.146;7.012;2023-06-19T01:23:25;19.10;57.60
79030;DHT22;68511;51.146;7.012;2023-06-19T01:24:25;19.10;57.50
79030;DHT22;68511;51.146;7.012;2023-06-19T01:25:26;19.10;57.50
79030;DHT22;68511;51.146;7.012;2023-06-19T01:26:27;19.10;57.40
79030;DHT22;68511;51.146;7.012;2023-06-19T01:27:27;19.10;57.40
79030;DHT22;68511;51.146;7.012;2023-06-19T01:28:31;19.10;57.50
79030;DHT22;68511;51.146;7.012;2023-06-19T01:29:32;19.10;57.40
79030;DHT22;68511;51.146;7.012;2023-06-19T01:30:33;19.10;57.40
79030;DHT22;68511;51.146;7.012;2023-06-19T01:31:38;19.10;57.40
79030;DHT22;68511;51.146;7.012;2023-06-19T01:33:43;19.10;57.40
79030;DHT22;68511;51.146;7.012;2023-06-19T01:34:45;19.10;57.40
79030;DHT22;68511;51.146;7.012;2023-06-19T01:35:46;19.10;57.40
79030;DHT22;68511;51.146;7.012;2023-06-19T01:36:48;19.10;57.40
79030;DHT22;68511;51.146;7.012;2023-06-19T01:37:49;19.10;57.40
79030;DHT22;68511;51.146;7.012;2023-06-19T01:38:52;19.10;57.50
79030;DHT22;68511;51.146;7.012;2023-06-19T01:39:55;19.10;57.40
79030;DHT22;68511;51.146;7.012;2023-06-19T01:40:56;19.10;57.40
79030;DHT22;68511;51.146;7.012;2023-06-19T01:41:58;19.10;57.40
79030;DHT22;68511;51.146;7.012;2023-06-19T01:42:59;19.10;57.70
79030;DHT22;68511;51.146;7.012;2023-06-19T01:44:04;19.10;57.50
79030;DHT22;68511;51.146;7.012;2023-06-19T01:45:05;19.10;57.40
79030;DHT22;68511;51.146;7.012;2023-06-19T01:46:07;19.10;57.60
79030;DHT22;68511;51.146;7.012;2023-06-19T01:47:11;19.10;57.50
79030;DHT22;68511;51.146;7.012;2023-06-19T01:48:12;19.10;57.70
79030;DHT22;68511;51.146;7.012;2023-06-19T01:49:13;19.10;57.60
79030;DHT22;68511;51.146;7.012;2023-06-19T01:50:16;19.10;57.50
79030;DHT22;68511;51.146;7.012;2023-06-19T01:51:16;19.10;57.40
79030;DHT22;68511;51.146;7.012;2023-06-19T01:52:17;19.10;57.40
79030;DHT22;68511;51.146;7.012;2023-06-19T01:53:18;19.10;57.50
79030;DHT22;68511;51.146;7.012;2023-06-19T01:54:18;19.10;57.50
79030;DHT22;68511;51.146;7.012;2023-06-19T01:55:19;19.10;57.40
79030;DHT22;68511;51.146;7.012;2023-06-19T01:56:22;19.10;57.50
79030;DHT22;68511;51.146;7.012;2023-06-19T01:57:24;19.10;57.50
79030;DHT22;68511;51.146;7.012;2023-06-19T01:58:24;19.10;57.50
79030;DHT22;68511;51.146;7.012;2023-06-19T01:59:25;19.10;57.50
79030;DHT22;68511;51.146;7.012;2023-06-19T02:00:26;19.20;57.70
79030;DHT22;68511;51.146;7.012;2023-06-19T02:01:28;19.10;57.70
79030;DHT22;68511;51.146;7.012;2023-06-19T02:02:29;19.10;57.50
79030;DHT22;68511;51.146;7.012;2023-06-19T02:03:29;19.10;57.50
79030;DHT22;68511;51.146;7.012;2023-06-19T02:04:32;19.10;57.50
79030;DHT22;68511;51.146;7.012;2023-06-19T02:05:33;19.10;57.60
79030;DHT22;68511;51.146;7.012;2023-06-19T02:06:36;19.10;57.50
79030;DHT22;68511;51.146;7.012;2023-06-19T02:07:37;19.10;57.50
79030;DHT22;68511;51.146;7.012;2023-06-19T02:08:39;19.10;57.40
79030;DHT22;68511;51.146;7.012;2023-06-19T02:09:40;19.10;57.40
79030;DHT22;68511;51.146;7.012;2023-06-19T02:10:41;19.10;57.50
79030;DHT22;68511;51.146;7.012;2023-06-19T02:11:42;19.10;57.50
79030;DHT22;68511;51.146;7.012;2023-06-19T02:12:44;19.10;57.40
79030;DHT22;68511;51.146;7.012;2023-06-19T02:13:45;19.10;57.50
79030;DHT22;68511;51.146;7.012;2023-06-19T02:14:45;19.10;57.40
79030;DHT22;68511;51.146;7.012;2023-06-19T02:15:46;19.10;57.40
79030;DHT22;68511;51.146;7.012;2023-06-19T02:16:46;19.10;57.40
79030;DHT22;68511;51.146;7.012;2023-06-19T02:17:47;19.10;57.60
79030;DHT22;68511;51.146;7.012;2023-06-19T02:18:47;19.10;57.60
79030;DHT22;68511;51.146;7.012;2023-06-19T02:19:48;19.10;57.40
79030;DHT22;68511;51.146;7.012;2023-06-19T02:20:50;19.10;57.60
79030;DHT22;68511;51.146;7.012;2023-06-19T02:21:51;19.10;57.60
79030;DHT22;68511;51.146;7.012;2023-06-19T02:22:51;19.10;57.60
79030;DHT22;68511;51.146;7.012;2023-06-19T02:23:52;19.10;57.50
79030;DHT22;68511;51.146;7.012;2023-06-19T02:24:52;19.10;57.50
79030;DHT22;68511;51.146;7.012;2023-06-19T02:25:54;19.10;57.50
79030;DHT22;68511;51.146;7.012;2023-06-19T02:26:54;19.10;57.50
79030;DHT22;68511;51.146;7.012;2023-06-19T02:27:55;19.10;57.50
79030;DHT22;68511;51.146;7.012;2023-06-19T02:28:55;19.10;57.40
79030;DHT22;68511;51.146;7.012;2023-06-19T02:29:58;19.10;57.40
79030;DHT22;68511;51.146;7.012;2023-06-19T02:31:01;19.10;57.40
79030;DHT22;68511;51.146;7.012;2023-06-19T02:32:02;19.10;57.50
79030;DHT22;68511;51.146;7.012;2023-06-19T02:33:02;19.10;57.50
79030;DHT22;68511;51.146;7.012;2023-06-19T02:34:05;19.10;57.60
79030;DHT22;68511;51.146;7.012;2023-06-19T02:35:06;19.10;57.50
79030;DHT22;68511;51.146;7.012;2023-06-19T02:36:08;19.10;57.60
79030;DHT22;68511;51.146;7.012;2023-06-19T02:37:09;19.10;57.60
79030;DHT22;68511;51.146;7.012;2023-06-19T02:38:10;19.10;57.80
79030;DHT22;68511;51.146;7.012;2023-06-19T02:39:11;19.10;57.60
79030;DHT22;68511;51.146;7.012;2023-06-19T02:40:15;19.10;57.50
79030;DHT22;68511;51.146;7.012;2023-06-19T02:41:15;19.10;57.50
79030;DHT22;68511;51.146;7.012;2023-06-19T02:42:16;19.10;57.50
79030;DHT22;68511;51.146;7.012;2023-06-19T02:43:16;19.10;57.50
79030;DHT22;68511;51.146;7.012;2023-06-19T02:44:17;19.10;57.50
79030;DHT22;68511;51.146;7.012;2023-06-19T02:45:19;19.10;58.00
79030;DHT22;68511;51.146;7.012;2023-06-19T02:46:20;19.10;57.60
79030;DHT22;68511;51.146;7.012;2023-06-19T02:47:20;19.10;57.60
79030;DHT22;68511;51.146;7.012;2023-06-19T02:48:21;19.10;57.60
79030;DHT22;68511;51.146;7.012;2023-06-19T02:49:23;19.10;57.50
79030;DHT22;68511;51.146;7.012;2023-06-19T02:50:23;19.10;57.50
79030;DHT22;68511;51.146;7.012;2023-06-19T02:51:24;19.10;57.50
79030;DHT22;68511;51.146;7.012;2023-06-19T02:52:25;19.10;57.50
79030;DHT22;68511;51.146;7.012;2023-06-19T02:53:28;19.10;58.00
79030;DHT22;68511;51.146;7.012;2023-06-19T02:54:29;19.10;57.80
79030;DHT22;68511;51.146;7.012;2023-06-19T02:55:29;19.10;57.60
79030;DHT22;68511;51.146;7.012;2023-06-19T02:56:30;19.10;58.10
79030;DHT22;68511;51.146;7.012;2023-06-19T02:57:30;19.10;57.60
79030;DHT22;68511;51.146;7.012;2023-06-19T02:58:35;19.10;57.50
79030;DHT22;68511;51.146;7.012;2023-06-19T02:59:40;19.10;57.50
79030;DHT22;68511;51.146;7.012;2023-06-19T03:00:41;19.10;57.50
79030;DHT22;68511;51.146;7.012;2023-06-19T03:01:44;19.10;57.50
79030;DHT22;68511;51.146;7.012;2023-06-19T03:02:45;19.10;57.80
79030;DHT22;68511;51.146;7.012;2023-06-19T03:03:45;19.10;57.70
79030;DHT22;68511;51.146;7.012;2023-06-19T03:04:48;19.10;57.60
79030;DHT22;68511;51.146;7.012;2023-06-19T03:05:51;19.10;57.50
79030;DHT22;68511;51.146;7.012;2023-06-19T03:06:54;19.10;57.60
79030;DHT22;68511;51.146;7.012;2023-06-19T03:07:55;19.10;57.50
79030;DHT22;68511;51.146;7.012;2023-06-19T03:08:55;19.10;57.50
79030;DHT22;68511;51.146;7.012;2023-06-19T03:09:56;19.10;57.50
79030;DHT22;68511;51.146;7.012;2023-06-19T03:10:57;19.10;57.50
79030;DHT22;68511;51.146;7.012;2023-06-19T03:11:57;19.10;57.50
79030;DHT22;68511;51.146;7.012;2023-06-19T03:12:58;19.10;57.60
79030;DHT22;68511;51.146;7.012;2023-06-19T03:13:59;19.10;57.60
79030;DHT22;68511;51.146;7.012;2023-06-19T03:15:00;19.10;57.50
79030;DHT22;68511;51.146;7.012;2023-06-19T03:16:00;19.10;57.70
79030;DHT22;68511;51.146;7.012;2023-06-19T03:17:01;19.10;57.80
79030;DHT22;68511;51.146;7.012;2023-06-19T03:18:02;19.10;57.60
79030;DHT22;68511;51.146;7.012;2023-06-19T03:19:04;19.10;57.70
79030;DHT22;68511;51.146;7.012;2023-06-19T03:20:05;19.10;57.60
79030;DHT22;68511;51.146;7.012;2023-06-19T03:21:06;19.10;57.60
79030;DHT22;68511;51.146;7.012;2023-06-19T03:22:06;19.10;57.60
79030;DHT22;68511;51.146;7.012;2023-06-19T03:23:07;19.10;57.50
79030;DHT22;68511;51.146;7.012;2023-06-19T03:24:07;19.10;57.60
79030;DHT22;68511;51.146;7.012;2023-06-19T03:25:08;19.10;57.60
79030;DHT22;68511;51.146;7.012;2023-06-19T03:26:09;19.10;57.50
79030;DHT22;68511;51.146;7.012;2023-06-19T03:27:10;19.10;57.60
79030;DHT22;68511;51.146;7.012;2023-06-19T03:28:10;19.10;57.50
79030;DHT22;68511;51.146;7.012;2023-06-19T03:29:11;19.10;57.50
79030;DHT22;68511;51.146;7.012;2023-06-19T03:30:11;19.10;57.50
79030;DHT22;68511;51.146;7.012;2023-06-19T03:31:15;19.10;57.50
79030;DHT22;68511;51.146;7.012;2023-06-19T03:32:15;19.10;57.60
79030;DHT22;68511;51.146;7.012;2023-06-19T03:33:16;19.10;57.60
79030;DHT22;68511;51.146;7.012;2023-06-19T03:34:16;19.10;57.50
79030;DHT22;68511;51.146;7.012;2023-06-19T03:35:19;19.10;57.50
79030;DHT22;68511;51.146;7.012;2023-06-19T03:36:20;19.10;57.70
79030;DHT22;68511;51.146;7.012;2023-06-19T03:37:21;19.10;57.60
79030;DHT22;68511;51.146;7.012;2023-06-19T03:38:21;19.10;57.60
79030;DHT22;68511;51.146;7.012;2023-06-19T03:39:21;19.10;57.50
79030;DHT22;68511;51.146;7.012;2023-06-19T03:40:24;19.10;57.50
79030;DHT22;68511;51.146;7.012;2023-06-19T03:41:25;19.10;57.50
79030;DHT22;68511;51.146;7.012;2023-06-19T03:42:25;19.10;57.80
79030;DHT22;68511;51.146;7.012;2023-06-19T03:43:26;19.10;57.80
79030;DHT22;68511;51.146;7.012;2023-06-19T03:44:26;19.10;57.60
79030;DHT22;68511;51.146;7.012;2023-06-19T03:45:30;19.10;57.70
79030;DHT22;68511;51.146;7.012;2023-06-19T03:46:32;19.10;57.60
79030;DHT22;68511;51.146;7.012;2023-06-19T03:47:33;19.10;57.60
79030;DHT22;68511;51.146;7.012;2023-06-19T03:48:33;19.10;57.60
79030;DHT22;68511;51.146;7.012;2023-06-19T03:49:34;19.10;57.60
79030;DHT22;68511;51.146;7.012;2023-06-19T03:50:34;19.10;57.60
79030;DHT22;68511;51.146;7.012;2023-06-19T03:51:35;19.10;57.60
79030;DHT22;68511;51.146;7.012;2023-06-19T03:52:37;19.10;57.70
79030;DHT22;68511;51.146;7.012;2023-06-19T03:53:39;19.10;57.90
79030;DHT22;68511;51.146;7.012;2023-06-19T03:54:40;19.10;57.80
79030;DHT22;68511;51.146;7.012;2023-06-19T03:55:40;19.10;57.80
79030;DHT22;68511;51.146;7.012;2023-06-19T03:56:41;19.10;57.70
79030;DHT22;68511;51.146;7.012;2023-06-19T03:57:41;19.10;57.60
79030;DHT22;68511;51.146;7.012;2023-06-19T03:58:41;19.10;57.60
79030;DHT22;68511;51.146;7.012;2023-06-19T03:59:44;19.10;57.80
79030;DHT22;68511;51.146;7.012;2023-06-19T04:00:45;19.10;57.60
79030;DHT22;68511;51.146;7.012;2023-06-19T04:01:45;19.10;57.60
79030;DHT22;68511;51.146;7.012;2023-06-19T04:02:46;19.10;57.70
79030;DHT22;68511;51.146;7.012;2023-06-19T04:03:46;19.10;57.60
79030;DHT22;68511;51.146;7.012;2023-06-19T04:04:47;19.10;57.60
79030;DHT22;68511;51.146;7.012;2023-06-19T04:05:47;19.10;57.60
79030;DHT22;68511;51.146;7.012;2023-06-19T04:06:48;19.10;57.60
79030;DHT22;68511;51.146;7.012;2023-06-19T04:07:50;19.10;57.60
79030;DHT22;68511;51.146;7.012;2023-06-19T04:08:51;19.10;57.60
79030;DHT22;68511;51.146;7.012;2023-06-19T04:09:52;19.10;57.60
79030;DHT22;68511;51.146;7.012;2023-06-19T04:10:52;19.10;57.60
79030;DHT22;68511;51.146;7.012;2023-06-19T04:11:53;19.10;57.60
79030;DHT22;68511;51.146;7.012;2023-06-19T04:12:53;19.10;57.60
79030;DHT22;68511;51.146;7.012;2023-06-19T04:13:55;19.10;57.70
79030;DHT22;68511;51.146;7.012;2023-06-19T04:14:56;19.10;57.70
79030;DHT22;68511;51.146;7.012;2023-06-19T04:15:57;19.10;57.60
79030;DHT22;68511;51.146;7.012;2023-06-19T04:16:57;19.10;57.60
79030;DHT22;68511;51.146;7.012;2023-06-19T04:17:58;19.10;57.70
79030;DHT22;68511;51.146;7.012;2023-06-19T04:19:00;19.10;58.00
79030;DHT22;68511;51.146;7.012;2023-06-19T04:20:03;19.10;57.80
79030;DHT22;68511;51.146;7.012;2023-06-19T04:21:14;19.10;57.60
79030;DHT22;68511;51.146;7.012;2023-06-19T04:22:14;19.10;57.70
79030;DHT22;68511;51.146;7.012;2023-06-19T04:23:15;19.10;57.60
79030;DHT22;68511;51.146;7.012;2023-06-19T04:24:15;19.10;57.80
79030;DHT22;68511;51.146;7.012;2023-06-19T04:25:16;19.10;57.70
79030;DHT22;68511;51.146;7.012;2023-06-19T04:26:19;19.10;57.60
79030;DHT22;68511;51.146;7.012;2023-06-19T04:27:21;19.10;57.60
79030;DHT22;68511;51.146;7.012;2023-06-19T04:28:21;19.10;58.00
79030;DHT22;68511;51.146;7.012;2023-06-19T04:29:22;19.10;58.00
79030;DHT22;68511;51.146;7.012;2023-06-19T04:30:22;19.10;57.70
79030;DHT22;68511;51.146;7.012;2023-06-19T04:31:23;19.10;57.70
79030;DHT22;68511;51.146;7.012;2023-06-19T04:32:26;19.10;58.20
79030;DHT22;68511;51.146;7.012;2023-06-19T04:33:27;19.10;58.00
79030;DHT22;68511;51.146;7.012;2023-06-19T04:34:28;19.10;57.80
79030;DHT22;68511;51.146;7.012;2023-06-19T04:35:32;19.10;57.70
79030;DHT22;68511;51.146;7.012;2023-06-19T04:36:32;19.10;57.70
79030;DHT22;68511;51.146;7.012;2023-06-19T04:37:35;19.10;57.90
79030;DHT22;68511;51.146;7.012;2023-06-19T04:38:35;19.10;58.00
79030;DHT22;68511;51.146;7.012;2023-06-19T04:39:35;19.10;57.80
79030;DHT22;68511;51.146;7.012;2023-06-19T04:40:36;19.10;57.80
79030;DHT22;68511;51.146;7.012;2023-06-19T04:41:37;19.10;57.80
79030;DHT22;68511;51.146;7.012;2023-06-19T04:42:38;19.10;57.80
79030;DHT22;68511;51.146;7.012;2023-06-19T04:43:41;19.10;57.70
79030;DHT22;68511;51.146;7.012;2023-06-19T04:44:47;19.10;57.80
79030;DHT22;68511;51.146;7.012;2023-06-19T04:45:48;19.20;57.80
79030;DHT22;68511;51.146;7.012;2023-06-19T04:46:51;19.10;57.80
79030;DHT22;68511;51.146;7.012;2023-06-19T04:48:03;19.10;57.90
79030;DHT22;68511;51.146;7.012;2023-06-19T04:49:04;19.10;57.90
79030;DHT22;68511;51.146;7.012;2023-06-19T04:50:06;19.10;57.90
79030;DHT22;68511;51.146;7.012;2023-06-19T04:51:13;19.10;57.70
79030;DHT22;68511;51.146;7.012;2023-06-19T04:52:19;19.10;57.70
79030;DHT22;68511;51.146;7.012;2023-06-19T04:53:20;19.10;57.60
79030;DHT22;68511;51.146;7.012;2023-06-19T04:54:20;19.10;57.60
79030;DHT22;68511;51.146;7.012;2023-06-19T04:55:20;19.10;57.70
79030;DHT22;68511;51.146;7.012;2023-06-19T04:56:21;19.10;57.60
79030;DHT22;68511;51.146;7.012;2023-06-19T04:57:21;19.10;57.70
79030;DHT22;68511;51.146;7.012;2023-06-19T04:58:22;19.10;57.80
79030;DHT22;68511;51.146;7.012;2023-06-19T04:59:25;19.10;57.70
79030;DHT22;68511;51.146;7.012;2023-06-19T05:00:26;19.20;58.10
79030;DHT22;68511;51.146;7.012;2023-06-19T05:01:27;19.10;57.80
79030;DHT22;68511;51.146;7.012;2023-06-19T05:02:31;19.10;57.80
79030;DHT22;68511;51.146;7.012;2023-06-19T05:03:31;19.10;57.80
79030;DHT22;68511;51.146;7.012;2023-06-19T05:04:32;19.10;57.80
79030;DHT22;68511;51.146;7.012;2023-06-19T05:05:35;19.10;58.00
79030;DHT22;68511;51.146;7.012;2023-06-19T05:06:35;19.10;57.80
79030;DHT22;68511;51.146;7.012;2023-06-19T05:07:36;19.10;57.80
79030;DHT22;68511;51.146;7.012;2023-06-19T05:08:39;19.10;57.80
79030;DHT22;68511;51.146;7.012;2023-06-19T05:09:40;19.10;57.70
79030;DHT22;68511;51.146;7.012;2023-06-19T05:10:40;19.10;57.70
79030;DHT22;68511;51.146;7.012;2023-06-19T05:11:43;19.10;57.90
79030;DHT22;68511;51.146;7.012;2023-06-19T05:12:44;19.10;58.00
79030;DHT22;68511;51.146;7.012;2023-06-19T05:13:44;19.10;57.80
79030;DHT22;68511;51.146;7.012;2023-06-19T05:14:45;19.10;58.10
79030;DHT22;68511;51.146;7.012;2023-06-19T05:15:45;19.10;57.80
79030;DHT22;68511;51.146;7.012;2023-06-19T05:16:46;19.10;57.80
79030;DHT22;68511;51.146;7.012;2023-06-19T05:17:46;19.10;58.10
79030;DHT22;68511;51.146;7.012;2023-06-19T05:18:47;19.10;58.00
79030;DHT22;68511;51.146;7.012;2023-06-19T05:19:47;19.10;57.80
79030;DHT22;68511;51.146;7.012;2023-06-19T05:20:48;19.10;57.80
79030;DHT22;68511;51.146;7.012;2023-06-19T05:21:48;19.10;57.70
79030;DHT22;68511;51.146;7.012;2023-06-19T05:22:52;19.10;57.70
79030;DHT22;68511;51.146;7.012;2023-06-19T05:23:52;19.20;58.40
79030;DHT22;68511;51.146;7.012;2023-06-19T05:24:53;19.10;57.80
79030;DHT22;68511;51.146;7.012;2023-06-19T05:25:53;19.10;57.70
79030;DHT22;68511;51.146;7.012;2023-06-19T05:26:54;19.10;57.70
79030;DHT22;68511;51.146;7.012;2023-06-19T05:27:54;19.10;57.70
79030;DHT22;68511;51.146;7.012;2023-06-19T05:28:55;19.10;57.70
79030;DHT22;68511;51.146;7.012;2023-06-19T05:29:55;19.10;58.00
79030;DHT22;68511;51.146;7.012;2023-06-19T05:30:56;19.10;57.80
79030;DHT22;68511;51.146;7.012;2023-06-19T05:31:56;19.10;57.80
79030;DHT22;68511;51.146;7.012;2023-06-19T05:32:56;19.10;57.90
79030;DHT22;68511;51.146;7.012;2023-06-19T05:33:57;19.10;57.80
79030;DHT22;68511;51.146;7.012;2023-06-19T05:34:58;19.10;57.80
79030;DHT22;68511;51.146;7.012;2023-06-19T05:35:59;19.10;57.80
79030;DHT22;68511;51.146;7.012;2023-06-19T05:36:59;19.10;57.80
79030;DHT22;68511;51.146;7.012;2023-06-19T05:38:03;19.10;57.80
79030;DHT22;68511;51.146;7.012;2023-06-19T05:39:05;19.10;57.80
79030;DHT22;68511;51.146;7.012;2023-06-19T05:40:06;19.10;57.70
79030;DHT22;68511;51.146;7.012;2023-06-19T05:41:06;19.10;57.90
79030;DHT22;68511;51.146;7.012;2023-06-19T05:42:07;19.10;57.80
79030;DHT22;68511;51.146;7.012;2023-06-19T05:43:07;19.10;57.80
79030;DHT22;68511;51.146;7.012;2023-06-19T05:44:08;19.10;57.70
79030;DHT22;68511;51.146;7.012;2023-06-19T05:45:14;19.10;58.00
79030;DHT22;68511;51.146;7.012;2023-06-19T05:46:14;19.10;58.00
79030;DHT22;68511;51.146;7.012;2023-06-19T05:47:15;19.10;58.10
79030;DHT22;68511;51.146;7.012;2023-06-19T05:48:17;19.10;57.80
79030;DHT22;68511;51.146;7.012;2023-06-19T05:49:17;19.10;57.80
79030;DHT22;68511;51.146;7.012;2023-06-19T05:50:18;19.10;58.10
79030;DHT22;68511;51.146;7.012;2023-06-19T05:51:18;19.10;57.90
79030;DHT22;68511;51.146;7.012;2023-06-19T05:52:18;19.10;58.00
79030;DHT22;68511;51.146;7.012;2023-06-19T05:53:19;19.10;58.00
79030;DHT22;68511;51.146;7.012;2023-06-19T05:54:20;19.10;57.80
79030;DHT22;68511;51.146;7.012;2023-06-19T05:55:20;19.10;57.80
79030;DHT22;68511;51.146;7.012;2023-06-19T05:56:21;19.10;58.10
79030;DHT22;68511;51.146;7.012;2023-06-19T05:57:21;19.10;57.90
79030;DHT22;68511;51.146;7.012;2023-06-19T05:58:21;19.10;57.80
79030;DHT22;68511;51.146;7.012;2023-06-19T05:59:24;19.10;57.80
79030;DHT22;68511;51.146;7.012;2023-06-19T06:00:25;19.10;58.10
79030;DHT22;68511;51.146;7.012;2023-06-19T06:01:26;19.10;57.80
79030;DHT22;68511;51.146;7.012;2023-06-19T06:02:29;19.10;57.80
79030;DHT22;68511;51.146;7.012;2023-06-19T06:03:31;19.10;58.00
79030;DHT22;68511;51.146;7.012;2023-06-19T06:04:32;19.10;57.80
79030;DHT22;68511;51.146;7.012;2023-06-19T06:05:32;19.10;57.80
79030;DHT22;68511;51.146;7.012;2023-06-19T06:06:33;19.10;57.80
79030;DHT22;68511;51.146;7.012;2023-06-19T06:07:33;19.10;57.70
79030;DHT22;68511;51.146;7.012;2023-06-19T06:08:34;19.10;58.20
79030;DHT22;68511;51.146;7.012;2023-06-19T06:09:34;19.10;58.20
79030;DHT22;68511;51.146;7.012;2023-06-19T06:10:35;19.10;57.90
79030;DHT22;68511;51.146;7.012;2023-06-19T06:11:35;19.10;58.00
79030;DHT22;68511;51.146;7.012;2023-06-19T06:12:36;19.10;58.00
79030;DHT22;68511;51.146;7.012;2023-06-19T06:13:36;19.10;57.90
79030;DHT22;68511;51.146;7.012;2023-06-19T06:14:37;19.10;57.80
79030;DHT22;68511;51.146;7.012;2023-06-19T06:15:37;19.10;58.20
79030;DHT22;68511;51.146;7.012;2023-06-19T06:16:38;19.10;57.90
79030;DHT22;68511;51.146;7.012;2023-06-19T06:17:38;19.10;57.80
79030;DHT22;68511;51.146;7.012;2023-06-19T06:18:40;19.10;57.80
79030;DHT22;68511;51.146;7.012;2023-06-19T06:19:40;19.10;57.80
79030;DHT22;68511;51.146;7.012;2023-06-19T06:20:41;19.10;58.10
79030;DHT22;68511;51.146;7.012;2023-06-19T06:21:43;19.10;57.80
79030;DHT22;68511;51.146;7.012;2023-06-19T06:22:43;19.10;57.80
79030;DHT22;68511;51.146;7.012;2023-06-19T06:23:44;19.10;57.80
79030;DHT22;68511;51.146;7.012;2023-06-19T06:24:45;19.10;57.80
79030;DHT22;68511;51.146;7.012;2023-06-19T06:25:47;19.10;57.80
79030;DHT22;68511;51.146;7.012;2023-06-19T06:26:48;19.10;58.00
79030;DHT22;68511;51.146;7.012;2023-06-19T06:27:48;19.10;57.90
79030;DHT22;68511;51.146;7.012;2023-06-19T06:28:49;19.10;57.80